EmailTwitter


Observations de surface / Europe / LIRF (16242)

Régions: Québec | Canada | États-Unis | Europe | France | UK | Ailleurs
Station
Affichage
Infos & localisation pour LIRF (16242) | Aide pour décoder les METARs

Observations prises le 2019-01-20 à 09H20 UTC (LIRF)

Etat du ciel: partiellement nuageux.

Obstacle(s) à la visibilité: faible pluie.

Température: 8.0 Celsius

Point de rosée: 6.0 Celsius

Humidité relative: 87%

Vents: Nord-est à 9 km/h ou 5 noeuds.

Pression au niveau moyen de la mer: 101.30 kilopascals.

Visibilité horizontale: 5.59 milles terrestres ou 8.95 kilomètres.

Hauteur du plafond: 1372 mètres ( 4500 pieds ).

Observation METAR:

LIRF 200920Z 06005KT 9000 -RA SCT025 BKN045 08/06 Q1013 NOSIG=